createdAt,value
2019-01-11T00:04:30.649Z,97723.72
2019-01-11T00:07:09.690Z,97723.83
2019-01-11T00:10:09.737Z,97725.16
2019-01-11T00:13:09.798Z,97724.62
2019-01-11T00:15:48.866Z,97723.32
2019-01-11T00:18:49.059Z,97727.17
2019-01-11T00:21:29.589Z,97720.28
2019-01-11T00:24:29.376Z,97726.75
2019-01-11T00:27:29.392Z,97733.17
2019-01-11T00:30:29.637Z,97737.53
2019-01-11T00:33:28.950Z,97739.71
2019-01-11T00:36:07.953Z,97742.30
2019-01-11T00:38:35.931Z,97744.44
2019-01-11T00:41:35.474Z,97742.80
2019-01-11T00:44:26.178Z,97747.57
2019-01-11T00:47:25.826Z,97754.94
2019-01-11T00:50:25.904Z,97758.98
2019-01-11T00:53:26.181Z,97760.21
2019-01-11T00:56:13.405Z,97767.53
2019-01-11T00:59:02.451Z,97763.13
2019-01-11T01:02:02.549Z,97767.03
2019-01-11T01:05:02.856Z,97769.20
2019-01-11T01:08:03.147Z,97774.50
2019-01-11T01:13:32.679Z,97782.71
2019-01-11T01:16:00.636Z,97786.68
2019-01-11T01:19:00.097Z,97792.72
2019-01-11T01:21:29.146Z,97795.74
2019-01-11T01:24:28.456Z,97791.44
2019-01-11T01:26:57.001Z,97789.79
2019-01-11T01:29:47.380Z,97788.61
2019-01-11T01:32:47.142Z,97800.77
2019-01-11T01:38:27.275Z,97804.06
2019-01-11T01:41:27.083Z,97804.09
2019-01-11T01:44:27.199Z,97811.47
2019-01-11T01:47:27.467Z,97803.24
2019-01-11T01:50:27.657Z,97814.52
2019-01-11T01:53:27.802Z,97807.11
2019-01-11T01:55:55.707Z,97813.20
2019-01-11T01:58:42.807Z,97816.75
2019-01-11T02:01:10.525Z,97811.55
2019-01-11T02:04:10.347Z,97809.91
2019-01-11T02:07:10.571Z,97810.78
2019-01-11T02:10:10.574Z,97815.63
2019-01-11T02:13:10.902Z,97813.42
2019-01-11T02:18:40.487Z,97801.50
2019-01-11T02:24:09.356Z,97801.59
2019-01-11T02:27:09.642Z,97795.30
2019-01-11T02:32:52.824Z,97807.89
2019-01-11T02:35:38.804Z,97803.84
2019-01-11T02:38:06.527Z,97805.94
2019-01-11T02:43:35.207Z,97805.31
2019-01-11T02:46:04.773Z,97803.16
2019-01-11T02:48:44.707Z,97816.04
2019-01-11T02:51:46.259Z,97808.16
2019-01-11T02:57:34.992Z,97806.56
2019-01-11T03:00:34.953Z,97804.30
2019-01-11T03:03:34.285Z,97808.58
2019-01-11T03:06:34.455Z,97802.06
2019-01-11T03:09:34.622Z,97809.77
2019-01-11T03:15:38.841Z,97809.88
2019-01-11T03:18:38.938Z,97809.30
2019-01-11T03:21:27.865Z,97811.51
2019-01-11T03:24:27.473Z,97803.44
2019-01-11T03:27:27.772Z,97810.87
2019-01-11T03:30:16.695Z,97806.23
2019-01-11T03:33:16.825Z,97815.03
2019-01-11T03:36:16.820Z,97810.70
2019-01-11T03:39:17.010Z,97814.68
2019-01-11T03:42:17.285Z,97821.63
2019-01-11T03:48:17.843Z,97821.80
2019-01-11T03:51:18.119Z,97816.97
2019-01-11T03:53:58.692Z,97824.28
2019-01-11T03:56:58.439Z,97816.86
2019-01-11T03:59:58.604Z,97816.02
2019-01-11T04:02:38.397Z,97826.08
2019-01-11T04:05:38.082Z,97821.33
2019-01-11T04:08:38.252Z,97824.88
2019-01-11T04:11:05.916Z,97825.27
2019-01-11T04:14:05.672Z,97833.06
2019-01-11T04:16:33.418Z,97830.55
2019-01-11T04:19:14.588Z,97823.22
2019-01-11T04:22:13.935Z,97827.13
2019-01-11T04:27:43.221Z,97830.31
2019-01-11T04:30:44.556Z,97831.08
2019-01-11T04:33:12.441Z,97832.95
2019-01-11T04:36:12.758Z,97842.03
2019-01-11T04:39:12.089Z,97833.20
2019-01-11T04:42:12.194Z,97834.25
2019-01-11T04:45:01.589Z,97850.75
2019-01-11T04:48:01.409Z,97851.69
2019-01-11T04:51:01.551Z,97851.28
2019-01-11T04:53:29.331Z,97864.73
2019-01-11T04:56:29.567Z,97863.94
2019-01-11T04:59:29.811Z,97864.86
2019-01-11T05:01:57.464Z,97866.64
2019-01-11T05:04:36.587Z,97864.15
2019-01-11T05:07:06.119Z,97865.88
2019-01-11T05:10:06.009Z,97871.09
2019-01-11T05:12:33.806Z,97874.59
2019-01-11T05:15:34.010Z,97881.14
2019-01-11T05:18:01.742Z,97891.14
2019-01-11T05:21:01.126Z,97882.06
2019-01-11T05:24:01.299Z,97886.03
2019-01-11T05:27:01.429Z,97889.08
2019-01-11T05:29:40.531Z,97874.95
2019-01-11T05:32:40.733Z,97891.41
2019-01-11T05:35:19.986Z,97890.63
2019-01-11T05:37:59.028Z,97893.66
2019-01-11T05:44:09.551Z,97904.51
2019-01-11T05:50:11.077Z,97901.53
2019-01-11T05:53:10.537Z,97897.19
2019-01-11T05:58:33.085Z,97899.91
2019-01-11T06:01:01.288Z,97900.39
2019-01-11T06:06:48.868Z,97910.38
2019-01-11T06:09:16.437Z,97909.08
2019-01-11T06:11:44.220Z,97909.12
2019-01-11T06:14:43.733Z,97909.98
2019-01-11T06:17:11.587Z,97906.98
2019-01-11T06:20:11.812Z,97916.12
2019-01-11T06:22:51.807Z,97910.93
2019-01-11T06:25:19.447Z,97911.44
2019-01-11T06:30:51.972Z,97915.79
2019-01-11T06:33:19.787Z,97916.02
2019-01-11T06:35:58.922Z,97920.80
2019-01-11T06:38:58.291Z,97919.11
2019-01-11T06:44:10.571Z,97921.86
2019-01-11T06:47:10.534Z,97931.39
2019-01-11T06:50:10.745Z,97934.03
2019-01-11T06:52:49.817Z,97939.22
2019-01-11T06:58:16.986Z,97945.88
2019-01-11T07:01:16.264Z,97950.16
2019-01-11T07:03:44.133Z,97944.97
2019-01-11T07:06:44.425Z,97952.33
2019-01-11T07:09:44.626Z,97958.37
2019-01-11T07:12:23.566Z,97956.17
2019-01-11T07:15:25.041Z,97955.14
2019-01-11T07:17:52.882Z,97959.75
2019-01-11T07:20:31.995Z,97959.84
2019-01-11T07:22:59.704Z,97963.95
2019-01-11T07:26:02.167Z,97970.86
2019-01-11T07:31:14.234Z,97968.88
2019-01-11T07:34:14.222Z,97963.47
2019-01-11T07:37:01.384Z,97962.91
2019-01-11T07:42:30.406Z,97971.77
2019-01-11T07:45:29.686Z,97970.16
2019-01-11T07:48:29.861Z,97964.59
2019-01-11T07:51:30.149Z,97971.53
2019-01-11T07:57:31.496Z,97972.77
2019-01-11T08:00:31.651Z,97972.52
2019-01-11T08:02:59.379Z,97979.11
2019-01-11T08:05:58.875Z,97976.63
2019-01-11T08:08:59.157Z,97975.38
2019-01-11T08:11:26.803Z,97969.80
2019-01-11T08:14:28.281Z,97973.98
2019-01-11T08:16:56.094Z,97975.73
2019-01-11T08:19:56.317Z,97978.38
2019-01-11T08:22:56.307Z,97982.07
2019-01-11T08:25:35.310Z,97972.36
2019-01-11T08:44:26.873Z,97986.21
2019-01-11T08:47:27.089Z,97994.26
2019-01-11T08:56:38.735Z,97999.50
2019-01-11T08:59:27.738Z,98002.94
2019-01-11T09:04:56.560Z,98006.07
2019-01-11T09:08:04.901Z,98005.56
2019-01-11T09:14:07.600Z,98003.89
2019-01-11T09:17:07.803Z,98003.88
2019-01-11T09:20:07.902Z,98002.77
2019-01-11T09:23:07.990Z,98005.91
2019-01-11T09:26:08.131Z,98007.55
2019-01-11T09:29:08.445Z,98009.81
2019-01-11T09:31:36.092Z,98005.88
2019-01-11T09:34:35.629Z,98012.03
2019-01-11T09:37:14.643Z,98013.03
2019-01-11T09:40:14.759Z,98011.23
2019-01-11T09:43:14.941Z,98012.69
2019-01-11T09:46:14.188Z,98010.16
2019-01-11T09:48:41.910Z,98009.78
2019-01-11T09:51:41.765Z,98004.38
2019-01-11T09:54:41.232Z,98004.66
2019-01-11T10:00:51.646Z,98007.98
2019-01-11T10:03:19.283Z,97995.05
2019-01-11T10:05:59.084Z,97994.80
2019-01-11T10:08:38.994Z,97988.78
2019-01-11T10:11:06.533Z,97991.84
2019-01-11T10:14:06.759Z,97991.98
2019-01-11T10:16:34.603Z,97992.34
2019-01-11T10:19:34.585Z,97986.09
2019-01-11T10:22:34.025Z,97982.79
2019-01-11T10:25:13.083Z,97981.92
2019-01-11T10:28:13.354Z,97984.52
2019-01-11T10:30:52.393Z,97980.48
2019-01-11T10:33:51.785Z,97984.27
2019-01-11T10:36:52.098Z,97979.91
2019-01-11T10:39:52.287Z,97979.40
2019-01-11T10:42:41.221Z,97975.25
2019-01-11T10:48:46.386Z,97978.12
2019-01-11T10:51:46.102Z,97974.80
2019-01-11T11:03:58.285Z,97972.30
2019-01-11T11:06:57.817Z,97968.44
2019-01-11T11:09:57.171Z,97958.07
2019-01-11T11:12:57.549Z,97953.19
2019-01-11T11:15:55.088Z,97956.61
2019-01-11T11:21:55.759Z,97950.07
2019-01-11T11:31:03.992Z,97930.80
2019-01-11T11:34:03.522Z,97931.05
2019-01-11T11:37:02.865Z,97924.32
2019-01-11T11:43:02.762Z,97931.15
2019-01-11T11:55:04.460Z,97914.98
2019-01-11T12:07:08.886Z,97897.31
2019-01-11T12:09:47.950Z,97911.30
2019-01-11T12:12:48.401Z,97904.64
2019-01-11T12:15:37.283Z,97908.69
2019-01-11T12:18:26.259Z,97905.73
2019-01-11T12:21:15.227Z,97896.95
2019-01-11T12:24:15.257Z,97903.25
2019-01-11T12:27:15.449Z,97899.58
2019-01-11T12:30:15.674Z,97904.62
2019-01-11T12:35:53.334Z,97898.55
2019-01-11T12:38:53.235Z,97890.52
2019-01-11T12:44:54.096Z,97884.69
2019-01-11T12:50:55.876Z,97876.03
2019-01-11T12:56:56.104Z,97871.06
2019-01-11T12:59:56.250Z,97880.23
2019-01-11T13:02:56.473Z,97864.39
2019-01-11T13:05:56.539Z,97875.88
2019-01-11T13:08:56.644Z,97863.66
2019-01-11T13:11:35.690Z,97870.14
2019-01-11T13:14:36.060Z,97870.50
2019-01-11T13:17:37.392Z,97864.77
2019-01-11T13:20:07.059Z,97860.33
2019-01-11T13:23:06.748Z,97866.46
2019-01-11T13:25:53.920Z,97858.44
2019-01-11T13:34:18.036Z,97849.33
2019-01-11T13:42:50.139Z,97864.80
2019-01-11T13:45:58.488Z,97864.29
2019-01-11T13:48:26.355Z,97864.70
2019-01-11T13:57:27.767Z,97867.36
2019-01-11T14:03:35.667Z,97861.09
2019-01-11T14:09:38.120Z,97856.72
2019-01-11T14:12:18.642Z,97872.45
2019-01-11T14:24:14.339Z,97874.81
2019-01-11T14:30:16.777Z,97882.23
2019-01-11T14:33:16.513Z,97872.66
2019-01-11T14:36:16.083Z,97872.16
2019-01-11T14:42:16.936Z,97876.90
2019-01-11T14:48:06.448Z,97878.89
2019-01-11T14:51:07.138Z,97877.75
2019-01-11T14:53:46.156Z,97880.47
2019-01-11T14:56:16.870Z,97876.91
2019-01-11T14:59:18.788Z,97885.29
2019-01-11T15:05:06.593Z,97894.44
2019-01-11T15:14:14.189Z,97899.20
2019-01-11T15:20:14.453Z,97909.62
2019-01-11T15:23:14.978Z,97904.26
2019-01-11T15:26:18.316Z,97903.52
2019-01-11T15:35:15.909Z,97908.95
2019-01-11T15:38:16.202Z,97918.02
2019-01-11T15:41:15.548Z,97922.07
2019-01-11T15:44:14.910Z,97919.80
2019-01-11T15:46:54.921Z,97918.20
2019-01-11T15:49:22.481Z,97920.47
2019-01-11T15:52:22.550Z,97921.92
2019-01-11T15:54:50.488Z,97921.70
2019-01-11T16:00:40.376Z,97922.14
2019-01-11T16:06:43.226Z,97913.00
2019-01-11T16:10:09.155Z,97915.38
2019-01-11T16:13:15.784Z,97917.32
2019-01-11T16:16:22.233Z,97914.02
2019-01-11T16:19:31.214Z,97915.51
2019-01-11T16:21:58.949Z,97921.23
2019-01-11T16:27:28.091Z,97926.52
2019-01-11T16:33:29.625Z,97921.86
2019-01-11T16:39:00.050Z,97920.71
2019-01-11T16:42:08.342Z,97927.37
2019-01-11T16:45:08.249Z,97927.84
2019-01-11T16:48:07.701Z,97926.23
2019-01-11T16:56:51.199Z,97934.76
2019-01-11T17:00:01.947Z,97930.50
2019-01-11T17:05:18.428Z,97928.52
2019-01-11T17:08:17.816Z,97928.58
2019-01-11T17:17:26.812Z,97930.42
2019-01-11T17:19:54.555Z,97939.56
2019-01-11T17:25:56.578Z,97938.30
2019-01-11T17:28:56.946Z,97940.91
2019-01-11T17:34:58.599Z,97942.69
2019-01-11T17:37:58.757Z,97936.63
2019-01-11T17:40:58.948Z,97942.30
2019-01-11T17:46:42.014Z,97945.80
2019-01-11T17:49:42.242Z,97948.00
2019-01-11T17:52:42.395Z,97939.78
2019-01-11T17:55:42.618Z,97936.72
2019-01-11T17:58:42.652Z,97941.04
2019-01-11T18:01:32.553Z,97927.23
2019-01-11T18:04:21.410Z,97953.19
2019-01-11T18:07:29.858Z,97945.48
2019-01-11T18:13:08.040Z,97946.84
2019-01-11T18:15:48.612Z,97946.87
2019-01-11T18:21:16.937Z,97941.67
2019-01-11T18:26:57.095Z,97931.33
2019-01-11T18:30:05.404Z,97930.95
2019-01-11T18:35:35.269Z,97934.00
2019-01-11T18:41:04.475Z,97930.54
2019-01-11T18:46:31.694Z,97924.08
2019-01-11T18:49:25.221Z,97927.99
2019-01-11T18:52:12.484Z,97930.13
2019-01-11T18:55:01.466Z,97924.08
2019-01-11T18:57:29.043Z,97934.02
2019-01-11T19:00:37.476Z,97927.99
2019-01-11T19:03:26.334Z,97934.87
2019-01-11T19:06:34.749Z,97929.70
2019-01-11T19:09:04.189Z,97924.98
2019-01-11T19:11:31.862Z,97914.60
2019-01-11T19:13:59.444Z,97913.30
2019-01-11T19:16:27.194Z,97918.91
2019-01-11T19:18:54.771Z,97909.38
2019-01-11T19:21:22.490Z,97919.73
2019-01-11T19:23:50.295Z,97918.45
2019-01-11T19:26:18.094Z,97913.70
2019-01-11T19:29:17.831Z,97918.85
2019-01-11T19:31:45.595Z,97918.42
2019-01-11T19:34:13.276Z,97917.98
2019-01-11T19:36:41.001Z,97920.13
2019-01-11T19:39:08.743Z,97923.20
2019-01-11T19:42:08.335Z,97915.39
2019-01-11T19:44:36.048Z,97917.98
2019-01-11T19:47:03.792Z,97917.53
2019-01-11T19:52:32.901Z,97914.51
2019-01-11T19:55:00.535Z,97915.77
2019-01-11T20:01:05.935Z,97908.36
2019-01-11T20:03:45.055Z,97910.96
2019-01-11T20:06:12.763Z,97908.36
2019-01-11T20:09:12.147Z,97906.63
2019-01-11T20:12:11.704Z,97900.62
2019-01-11T20:14:39.421Z,97907.03
2019-01-11T20:23:10.118Z,97894.92
2019-01-11T20:26:09.968Z,97888.36
2019-01-11T20:28:58.902Z,97894.45
2019-01-11T20:34:38.441Z,97893.52
2019-01-11T20:37:28.212Z,97896.06
2019-01-11T20:40:07.238Z,97880.88
2019-01-11T20:42:47.300Z,97874.34
2019-01-11T20:45:48.030Z,97874.77
2019-01-11T20:51:50.824Z,97879.42
2019-01-11T20:57:20.033Z,97859.95
2019-01-11T21:03:06.625Z,97853.88
2019-01-11T21:08:46.262Z,97853.52
2019-01-11T21:11:46.511Z,97847.39
2019-01-11T21:14:46.537Z,97849.50
2019-01-11T21:23:48.914Z,97853.64
2019-01-11T21:26:38.033Z,97845.75
2019-01-11T21:29:05.903Z,97834.45
2019-01-11T21:32:05.959Z,97837.01
2019-01-11T21:37:31.171Z,97835.80
2019-01-11T21:40:31.482Z,97828.95
2019-01-11T21:43:30.895Z,97821.50
2019-01-11T21:46:30.340Z,97829.61
2019-01-11T21:48:58.366Z,97823.95
2019-01-11T21:58:04.570Z,97824.58
2019-01-11T22:01:00.249Z,97824.69
2019-01-11T22:03:49.259Z,97821.61
2019-01-11T22:06:30.012Z,97818.92
2019-01-11T22:09:30.027Z,97809.31
2019-01-11T22:12:30.229Z,97817.98
2019-01-11T22:18:29.103Z,97790.27
2019-01-11T22:24:18.549Z,97788.37
2019-01-11T22:30:18.684Z,97776.31
2019-01-11T22:33:18.860Z,97775.41
2019-01-11T22:36:18.308Z,97764.28
2019-01-11T22:39:17.973Z,97753.02
2019-01-11T22:41:45.790Z,97754.28
2019-01-11T22:44:45.155Z,97757.34
2019-01-11T22:47:45.409Z,97753.41
2019-01-11T22:53:13.719Z,97730.65
2019-01-11T22:55:52.831Z,97740.47
2019-01-11T22:58:20.651Z,97737.81
2019-01-11T23:01:22.883Z,97738.15
2019-01-11T23:04:24.409Z,97730.25
2019-01-11T23:06:59.151Z,97732.36
2019-01-11T23:10:01.595Z,97721.81
2019-01-11T23:16:14.600Z,97720.58
2019-01-11T23:19:14.720Z,97706.73
2019-01-11T23:22:15.027Z,97717.80
2019-01-11T23:25:16.520Z,97719.89
2019-01-11T23:28:15.892Z,97718.55
2019-01-11T23:31:16.457Z,97706.68
2019-01-11T23:36:44.719Z,97714.47
2019-01-11T23:42:24.169Z,97692.16
2019-01-11T23:45:23.944Z,97696.80
2019-01-11T23:48:02.924Z,97687.93
2019-01-11T23:51:02.642Z,97699.17
2019-01-11T23:54:02.827Z,97694.41
2019-01-11T23:56:49.863Z,97692.65
2019-01-11T23:59:28.898Z,97683.92
